Flugplatz Hanau AAF (ETID)

Hier findest Du alle Informationen zum Flugplatz Hanau AAF (ETID).

Informationen für Piloten zum Flugplatz Hanau AAF

Hier findest Du alle relevanten Informationen, die Du als Pilot benötigst, um Hanau AAF anzufliegen.

Flugplatz: Hanau AAF ICAO-Code: ETID
Frequenz Turm: 122,100 Mhz GAFOR Gebiet: 45
Frequenz Ground: 122,100 Mhz Mogas: nein
Platzrunde: - Landegebühr: -
Platzhöhe: - Sunrise: 05:06 Uhr UTC
Pisten: 10/28 - 916 m x , ASPH Sunset: 17:28 Uhr UTC

Flugwetter am Flugplatz Hanau AAF

Die METAR Information stammen aus EDDF (31.70 km entfernt).

METAR Code:
2020/09/07 07:50
EDDF 070750Z VRB02KT 9999 FEW028 15/08 Q1024 NOSIG

Temperatur: 10,8 °C Niederschlag: - Wind: 1,7 kt
Temperatur (min.): 10,0 °C Luftdruck: 1013 hPa Windrichtung: 350 °
Temperatur (max.): 12,2 °C Luftfeuchtigkeit: 66 % Bewölkung: 8/8

Flugschulen am Flugplatz Hanau AAF

Am Flugplatz Hanau AAF gibt es leider keine Flugschule.

Benachbarte Flugplätze und Flugschulen

Es gibt 17 weitere Flugplätze in einem Umkreis von 50 km um den Flugplatz Hanau AAF.

Jetzt anmelden

Passwort vergessen

Umfrage Archiv

Wären Rettungsgeräte keine Pflicht mehr, würdet Ihr Euer UL trotzdem mit einem ausstatten?

Ja
85.4 %
Nein
14.6 %
Stimmen: 314 | Diskussion
Anzeige: Roland Aircraft
Statistik Alle Mitglieder

Aktuell sind 101 Besucher online, davon 1 Mitglied und 100 Gäste.


Mitglieder online:
raller 

Anzeige: VFR Sprechfunk Simulator


Anzeige: Pocket FMS